sensor_id;sensor_type;location;lat;lon;timestamp;pressure;altitude;pressure_sealevel;temperature;humidity
3122;BME280;1571;52.524;14.104;2022-12-18T00:01:56;102739.53;;;-4.92;100.00
3122;BME280;1571;52.524;14.104;2022-12-18T00:04:26;102739.81;;;-4.83;100.00
3122;BME280;1571;52.524;14.104;2022-12-18T00:06:54;102744.13;;;-4.83;100.00
3122;BME280;1571;52.524;14.104;2022-12-18T00:09:23;102739.44;;;-4.95;100.00
3122;BME280;1571;52.524;14.104;2022-12-18T00:12:07;102749.88;;;-4.92;100.00
3122;BME280;1571;52.524;14.104;2022-12-18T00:14:41;102759.94;;;-5.01;100.00
3122;BME280;1571;52.524;14.104;2022-12-18T00:17:10;102754.44;;;-5.10;100.00
3122;BME280;1571;52.524;14.104;2022-12-18T00:19:38;102761.91;;;-5.19;100.00
3122;BME280;1571;52.524;14.104;2022-12-18T00:22:06;102765.75;;;-5.08;100.00
3122;BME280;1571;52.524;14.104;2022-12-18T00:24:34;102768.22;;;-5.11;100.00
3122;BME280;1571;52.524;14.104;2022-12-18T00:27:02;102772.28;;;-5.18;100.00
3122;BME280;1571;52.524;14.104;2022-12-18T00:29:32;102770.94;;;-5.32;100.00
3122;BME280;1571;52.524;14.104;2022-12-18T00:32:00;102767.69;;;-5.27;100.00
3122;BME280;1571;52.524;14.104;2022-12-18T00:34:29;102769.50;;;-5.24;100.00
3122;BME280;1571;52.524;14.104;2022-12-18T00:36:57;102766.31;;;-5.41;100.00
3122;BME280;1571;52.524;14.104;2022-12-18T00:39:25;102766.38;;;-5.15;100.00
3122;BME280;1571;52.524;14.104;2022-12-18T00:41:53;102773.38;;;-5.11;100.00
3122;BME280;1571;52.524;14.104;2022-12-18T00:44:40;102761.75;;;-5.24;100.00
3122;BME280;1571;52.524;14.104;2022-12-18T00:47:09;102760.88;;;-5.25;100.00
3122;BME280;1571;52.524;14.104;2022-12-18T00:49:37;102771.00;;;-5.31;100.00
3122;BME280;1571;52.524;14.104;2022-12-18T00:52:05;102771.50;;;-5.41;100.00
3122;BME280;1571;52.524;14.104;2022-12-18T00:54:33;102768.56;;;-5.50;100.00
3122;BME280;1571;52.524;14.104;2022-12-18T00:57:02;102762.97;;;-5.62;100.00
3122;BME280;1571;52.524;14.104;2022-12-18T00:59:30;102760.00;;;-5.49;100.00
3122;BME280;1571;52.524;14.104;2022-12-18T01:01:59;102759.88;;;-5.76;100.00
3122;BME280;1571;52.524;14.104;2022-12-18T01:04:31;102762.44;;;-5.54;100.00
3122;BME280;1571;52.524;14.104;2022-12-18T01:07:00;102761.75;;;-5.48;100.00
3122;BME280;1571;52.524;14.104;2022-12-18T01:09:28;102772.34;;;-5.42;100.00
3122;BME280;1571;52.524;14.104;2022-12-18T01:11:56;102773.84;;;-5.47;100.00
3122;BME280;1571;52.524;14.104;2022-12-18T01:14:25;102770.44;;;-5.46;100.00
3122;BME280;1571;52.524;14.104;2022-12-18T01:16:53;102766.94;;;-5.48;100.00
3122;BME280;1571;52.524;14.104;2022-12-18T01:19:23;102772.09;;;-5.48;100.00
3122;BME280;1571;52.524;14.104;2022-12-18T01:21:51;102780.81;;;-5.46;100.00
3122;BME280;1571;52.524;14.104;2022-12-18T01:24:19;102777.59;;;-5.39;100.00
3122;BME280;1571;52.524;14.104;2022-12-18T01:26:48;102772.88;;;-5.51;100.00
3122;BME280;1571;52.524;14.104;2022-12-18T01:29:16;102773.00;;;-5.70;100.00
3122;BME280;1571;52.524;14.104;2022-12-18T01:31:44;102776.38;;;-5.73;100.00
3122;BME280;1571;52.524;14.104;2022-12-18T01:34:13;102769.22;;;-5.80;100.00
3122;BME280;1571;52.524;14.104;2022-12-18T01:36:42;102777.75;;;-5.58;100.00
3122;BME280;1571;52.524;14.104;2022-12-18T01:39:12;102775.63;;;-5.94;100.00
3122;BME280;1571;52.524;14.104;2022-12-18T01:41:41;102785.94;;;-5.70;100.00
3122;BME280;1571;52.524;14.104;2022-12-18T01:45:04;102785.91;;;-5.72;100.00
3122;BME280;1571;52.524;14.104;2022-12-18T01:47:36;102785.09;;;-5.71;100.00
3122;BME280;1571;52.524;14.104;2022-12-18T01:50:08;102782.41;;;-5.74;100.00
3122;BME280;1571;52.524;14.104;2022-12-18T01:52:42;102778.03;;;-5.75;100.00
3122;BME280;1571;52.524;14.104;2022-12-18T01:55:12;102779.59;;;-5.56;100.00
3122;BME280;1571;52.524;14.104;2022-12-18T01:57:42;102780.25;;;-5.61;100.00
3122;BME280;1571;52.524;14.104;2022-12-18T02:00:13;102788.06;;;-5.60;100.00
3122;BME280;1571;52.524;14.104;2022-12-18T02:02:43;102782.44;;;-5.72;100.00
3122;BME280;1571;52.524;14.104;2022-12-18T02:05:15;102782.94;;;-5.58;100.00
3122;BME280;1571;52.524;14.104;2022-12-18T02:08:06;102779.03;;;-5.71;100.00
3122;BME280;1571;52.524;14.104;2022-12-18T02:10:43;102779.81;;;-5.74;100.00
3122;BME280;1571;52.524;14.104;2022-12-18T02:13:20;102793.00;;;-5.66;100.00
3122;BME280;1571;52.524;14.104;2022-12-18T02:15:59;102794.03;;;-5.62;100.00
3122;BME280;1571;52.524;14.104;2022-12-18T02:18:31;102801.72;;;-5.64;100.00
3122;BME280;1571;52.524;14.104;2022-12-18T02:21:07;102797.31;;;-5.67;100.00
3122;BME280;1571;52.524;14.104;2022-12-18T02:23:47;102802.94;;;-5.54;100.00
3122;BME280;1571;52.524;14.104;2022-12-18T02:26:26;102792.13;;;-5.67;100.00
3122;BME280;1571;52.524;14.104;2022-12-18T02:28:59;102787.94;;;-5.63;100.00
3122;BME280;1571;52.524;14.104;2022-12-18T02:31:35;102791.78;;;-5.53;100.00
3122;BME280;1571;52.524;14.104;2022-12-18T02:34:07;102796.97;;;-5.52;100.00
3122;BME280;1571;52.524;14.104;2022-12-18T02:36:40;102792.63;;;-5.53;100.00
3122;BME280;1571;52.524;14.104;2022-12-18T02:39:11;102795.47;;;-5.47;100.00
3122;BME280;1571;52.524;14.104;2022-12-18T02:41:54;102784.50;;;-5.39;100.00
3122;BME280;1571;52.524;14.104;2022-12-18T02:44:24;102784.97;;;-5.50;100.00
3122;BME280;1571;52.524;14.104;2022-12-18T02:46:53;102778.50;;;-5.62;100.00
3122;BME280;1571;52.524;14.104;2022-12-18T02:49:31;102790.34;;;-5.68;100.00
3122;BME280;1571;52.524;14.104;2022-12-18T02:52:07;102793.34;;;-5.57;100.00
3122;BME280;1571;52.524;14.104;2022-12-18T02:54:50;102795.34;;;-5.50;100.00
3122;BME280;1571;52.524;14.104;2022-12-18T02:57:29;102807.22;;;-5.55;100.00
3122;BME280;1571;52.524;14.104;2022-12-18T03:00:05;102821.88;;;-5.55;100.00
3122;BME280;1571;52.524;14.104;2022-12-18T03:02:39;102818.69;;;-5.48;100.00
3122;BME280;1571;52.524;14.104;2022-12-18T03:05:15;102823.19;;;-5.67;100.00
3122;BME280;1571;52.524;14.104;2022-12-18T03:07:49;102824.94;;;-5.66;100.00
3122;BME280;1571;52.524;14.104;2022-12-18T03:10:24;102823.63;;;-5.54;100.00
3122;BME280;1571;52.524;14.104;2022-12-18T03:13:00;102830.59;;;-5.53;100.00
3122;BME280;1571;52.524;14.104;2022-12-18T03:15:35;102831.94;;;-5.63;100.00
3122;BME280;1571;52.524;14.104;2022-12-18T03:18:12;102841.31;;;-5.67;100.00
3122;BME280;1571;52.524;14.104;2022-12-18T03:20:43;102843.38;;;-5.58;100.00
3122;BME280;1571;52.524;14.104;2022-12-18T03:23:18;102843.75;;;-5.70;100.00
3122;BME280;1571;52.524;14.104;2022-12-18T03:26:07;102842.34;;;-5.61;100.00
3122;BME280;1571;52.524;14.104;2022-12-18T03:28:44;102835.25;;;-5.67;100.00
3122;BME280;1571;52.524;14.104;2022-12-18T03:31:14;102850.06;;;-5.63;100.00
3122;BME280;1571;52.524;14.104;2022-12-18T03:33:47;102846.66;;;-5.62;100.00
3122;BME280;1571;52.524;14.104;2022-12-18T03:36:19;102854.50;;;-5.83;100.00
3122;BME280;1571;52.524;14.104;2022-12-18T03:38:48;102851.75;;;-5.86;100.00
3122;BME280;1571;52.524;14.104;2022-12-18T03:41:22;102847.03;;;-5.98;100.00
3122;BME280;1571;52.524;14.104;2022-12-18T03:44:21;102846.34;;;-6.15;100.00
3122;BME280;1571;52.524;14.104;2022-12-18T03:46:58;102844.66;;;-5.92;100.00
3122;BME280;1571;52.524;14.104;2022-12-18T03:49:33;102845.78;;;-5.85;100.00
3122;BME280;1571;52.524;14.104;2022-12-18T03:52:07;102847.28;;;-5.68;100.00
3122;BME280;1571;52.524;14.104;2022-12-18T03:54:40;102849.19;;;-5.86;100.00
3122;BME280;1571;52.524;14.104;2022-12-18T03:57:16;102850.72;;;-6.14;100.00
3122;BME280;1571;52.524;14.104;2022-12-18T03:59:51;102833.38;;;-5.94;100.00
3122;BME280;1571;52.524;14.104;2022-12-18T04:02:25;102838.03;;;-6.08;100.00
3122;BME280;1571;52.524;14.104;2022-12-18T04:04:58;102828.06;;;-5.98;100.00
3122;BME280;1571;52.524;14.104;2022-12-18T04:07:27;102826.44;;;-5.95;100.00
3122;BME280;1571;52.524;14.104;2022-12-18T04:09:59;102832.03;;;-6.07;100.00
3122;BME280;1571;52.524;14.104;2022-12-18T04:12:30;102836.38;;;-5.83;100.00
3122;BME280;1571;52.524;14.104;2022-12-18T04:15:00;102843.06;;;-5.66;100.00
3122;BME280;1571;52.524;14.104;2022-12-18T04:17:29;102839.00;;;-5.81;100.00
3122;BME280;1571;52.524;14.104;2022-12-18T04:19:57;102843.59;;;-5.97;100.00
3122;BME280;1571;52.524;14.104;2022-12-18T04:22:26;102845.06;;;-5.81;100.00
3122;BME280;1571;52.524;14.104;2022-12-18T04:24:58;102850.13;;;-5.84;100.00
3122;BME280;1571;52.524;14.104;2022-12-18T04:27:38;102852.88;;;-5.79;100.00
3122;BME280;1571;52.524;14.104;2022-12-18T04:30:10;102846.72;;;-5.83;100.00
3122;BME280;1571;52.524;14.104;2022-12-18T04:32:38;102848.25;;;-6.11;100.00
3122;BME280;1571;52.524;14.104;2022-12-18T04:35:08;102841.41;;;-6.10;100.00
3122;BME280;1571;52.524;14.104;2022-12-18T04:37:40;102838.72;;;-6.33;100.00
3122;BME280;1571;52.524;14.104;2022-12-18T04:40:09;102839.00;;;-6.26;100.00
3122;BME280;1571;52.524;14.104;2022-12-18T04:42:41;102833.09;;;-6.01;100.00
3122;BME280;1571;52.524;14.104;2022-12-18T04:45:11;102846.25;;;-5.95;100.00
3122;BME280;1571;52.524;14.104;2022-12-18T04:47:39;102850.88;;;-5.87;100.00
3122;BME280;1571;52.524;14.104;2022-12-18T04:50:08;102863.56;;;-5.93;100.00
3122;BME280;1571;52.524;14.104;2022-12-18T04:52:36;102856.16;;;-5.83;100.00
3122;BME280;1571;52.524;14.104;2022-12-18T04:55:05;102875.75;;;-5.90;100.00
3122;BME280;1571;52.524;14.104;2022-12-18T04:57:33;102869.19;;;-5.82;100.00
3122;BME280;1571;52.524;14.104;2022-12-18T05:00:03;102881.06;;;-5.87;100.00
3122;BME280;1571;52.524;14.104;2022-12-18T05:02:34;102888.34;;;-5.77;100.00
3122;BME280;1571;52.524;14.104;2022-12-18T05:05:03;102874.88;;;-5.91;100.00
3122;BME280;1571;52.524;14.104;2022-12-18T05:07:31;102883.31;;;-5.96;100.00
3122;BME280;1571;52.524;14.104;2022-12-18T05:09:59;102887.88;;;-5.89;100.00
3122;BME280;1571;52.524;14.104;2022-12-18T05:12:27;102877.22;;;-5.74;100.00
3122;BME280;1571;52.524;14.104;2022-12-18T05:14:55;102877.63;;;-5.86;100.00
3122;BME280;1571;52.524;14.104;2022-12-18T05:17:23;102871.16;;;-5.99;100.00
3122;BME280;1571;52.524;14.104;2022-12-18T05:19:53;102875.59;;;-5.95;100.00
3122;BME280;1571;52.524;14.104;2022-12-18T05:22:21;102876.69;;;-6.11;100.00
3122;BME280;1571;52.524;14.104;2022-12-18T05:24:50;102875.31;;;-6.02;100.00
3122;BME280;1571;52.524;14.104;2022-12-18T05:27:18;102870.72;;;-5.87;100.00
3122;BME280;1571;52.524;14.104;2022-12-18T05:29:47;102878.47;;;-6.10;100.00
3122;BME280;1571;52.524;14.104;2022-12-18T05:32:15;102887.88;;;-5.89;100.00
3122;BME280;1571;52.524;14.104;2022-12-18T05:34:43;102882.56;;;-5.92;100.00
3122;BME280;1571;52.524;14.104;2022-12-18T05:37:13;102888.81;;;-5.87;100.00
3122;BME280;1571;52.524;14.104;2022-12-18T05:39:42;102894.34;;;-6.00;100.00
3122;BME280;1571;52.524;14.104;2022-12-18T05:42:10;102894.47;;;-5.97;100.00
3122;BME280;1571;52.524;14.104;2022-12-18T05:44:38;102893.34;;;-5.81;100.00
3122;BME280;1571;52.524;14.104;2022-12-18T05:47:07;102898.91;;;-5.93;100.00
3122;BME280;1571;52.524;14.104;2022-12-18T05:49:35;102904.63;;;-5.79;100.00
3122;BME280;1571;52.524;14.104;2022-12-18T05:52:04;102904.38;;;-5.86;100.00
3122;BME280;1571;52.524;14.104;2022-12-18T05:54:33;102912.88;;;-6.11;100.00
3122;BME280;1571;52.524;14.104;2022-12-18T05:57:01;102933.84;;;-6.04;100.00
3122;BME280;1571;52.524;14.104;2022-12-18T05:59:30;102923.06;;;-5.93;100.00
3122;BME280;1571;52.524;14.104;2022-12-18T06:01:58;102923.88;;;-5.95;100.00
3122;BME280;1571;52.524;14.104;2022-12-18T06:04:26;102933.00;;;-5.81;100.00
3122;BME280;1571;52.524;14.104;2022-12-18T06:06:55;102929.28;;;-5.67;100.00
3122;BME280;1571;52.524;14.104;2022-12-18T06:09:24;102933.28;;;-5.75;100.00
3122;BME280;1571;52.524;14.104;2022-12-18T06:11:53;102929.06;;;-5.50;100.00
3122;BME280;1571;52.524;14.104;2022-12-18T06:14:21;102933.97;;;-5.56;100.00
3122;BME280;1571;52.524;14.104;2022-12-18T06:16:50;102932.47;;;-5.51;100.00
3122;BME280;1571;52.524;14.104;2022-12-18T06:19:19;102920.59;;;-5.46;100.00
3122;BME280;1571;52.524;14.104;2022-12-18T06:21:47;102928.59;;;-5.62;100.00
3122;BME280;1571;52.524;14.104;2022-12-18T06:24:16;102937.84;;;-5.68;100.00
3122;BME280;1571;52.524;14.104;2022-12-18T06:26:44;102949.31;;;-5.62;100.00
3122;BME280;1571;52.524;14.104;2022-12-18T06:29:14;102955.34;;;-5.62;100.00
3122;BME280;1571;52.524;14.104;2022-12-18T06:31:42;102952.19;;;-5.55;100.00
3122;BME280;1571;52.524;14.104;2022-12-18T06:34:11;102947.19;;;-5.50;100.00
3122;BME280;1571;52.524;14.104;2022-12-18T06:36:39;102943.53;;;-5.33;100.00
3122;BME280;1571;52.524;14.104;2022-12-18T06:39:07;102941.75;;;-5.34;100.00
3122;BME280;1571;52.524;14.104;2022-12-18T06:41:35;102950.63;;;-5.50;100.00
3122;BME280;1571;52.524;14.104;2022-12-18T06:44:05;102959.16;;;-5.52;100.00
3122;BME280;1571;52.524;14.104;2022-12-18T06:46:35;102968.97;;;-5.66;100.00
3122;BME280;1571;52.524;14.104;2022-12-18T06:49:03;102977.44;;;-5.70;100.00
3122;BME280;1571;52.524;14.104;2022-12-18T06:51:31;102982.09;;;-5.61;100.00
3122;BME280;1571;52.524;14.104;2022-12-18T06:53:59;102982.78;;;-5.66;100.00
3122;BME280;1571;52.524;14.104;2022-12-18T06:56:27;102992.53;;;-5.81;100.00
3122;BME280;1571;52.524;14.104;2022-12-18T06:58:56;103002.06;;;-5.80;100.00
3122;BME280;1571;52.524;14.104;2022-12-18T07:01:24;103006.69;;;-5.94;100.00
3122;BME280;1571;52.524;14.104;2022-12-18T07:03:54;103004.72;;;-5.57;100.00
3122;BME280;1571;52.524;14.104;2022-12-18T07:06:24;103007.97;;;-5.61;100.00
3122;BME280;1571;52.524;14.104;2022-12-18T07:08:54;103015.88;;;-5.58;100.00
3122;BME280;1571;52.524;14.104;2022-12-18T07:11:22;103007.72;;;-5.68;100.00
3122;BME280;1571;52.524;14.104;2022-12-18T07:13:52;103011.44;;;-5.61;100.00
3122;BME280;1571;52.524;14.104;2022-12-18T07:16:20;103002.22;;;-5.54;100.00
3122;BME280;1571;52.524;14.104;2022-12-18T07:18:52;103011.53;;;-5.59;100.00
3122;BME280;1571;52.524;14.104;2022-12-18T07:21:22;103011.78;;;-5.53;100.00
3122;BME280;1571;52.524;14.104;2022-12-18T07:23:51;103009.81;;;-5.59;100.00
3122;BME280;1571;52.524;14.104;2022-12-18T07:26:21;103007.09;;;-5.62;100.00
3122;BME280;1571;52.524;14.104;2022-12-18T07:28:50;103008.59;;;-5.46;100.00
3122;BME280;1571;52.524;14.104;2022-12-18T07:31:19;103011.91;;;-5.71;100.00
3122;BME280;1571;52.524;14.104;2022-12-18T07:33:49;103004.31;;;-5.46;100.00
3122;BME280;1571;52.524;14.104;2022-12-18T07:36:18;103009.41;;;-5.47;100.00
3122;BME280;1571;52.524;14.104;2022-12-18T07:38:48;103004.81;;;-5.54;100.00
3122;BME280;1571;52.524;14.104;2022-12-18T07:41:17;103000.66;;;-5.51;100.00
3122;BME280;1571;52.524;14.104;2022-12-18T07:43:46;103016.91;;;-5.32;100.00
3122;BME280;1571;52.524;14.104;2022-12-18T07:46:15;103003.69;;;-5.40;100.00
3122;BME280;1571;52.524;14.104;2022-12-18T07:48:44;102988.75;;;-5.25;100.00
3122;BME280;1571;52.524;14.104;2022-12-18T07:51:17;102981.25;;;-5.17;100.00
3122;BME280;1571;52.524;14.104;2022-12-18T07:53:46;102986.69;;;-5.54;100.00
3122;BME280;1571;52.524;14.104;2022-12-18T07:56:20;102995.25;;;-5.34;100.00
3122;BME280;1571;52.524;14.104;2022-12-18T07:58:57;102999.09;;;-5.25;100.00
3122;BME280;1571;52.524;14.104;2022-12-18T08:01:26;102995.78;;;-5.20;100.00
3122;BME280;1571;52.524;14.104;2022-12-18T08:03:55;102995.06;;;-5.39;100.00
3122;BME280;1571;52.524;14.104;2022-12-18T08:06:23;102996.53;;;-5.25;100.00
3122;BME280;1571;52.524;14.104;2022-12-18T08:08:52;103003.34;;;-5.27;100.00
3122;BME280;1571;52.524;14.104;2022-12-18T08:11:23;102993.16;;;-5.22;100.00
3122;BME280;1571;52.524;14.104;2022-12-18T08:13:52;102999.84;;;-5.27;100.00
3122;BME280;1571;52.524;14.104;2022-12-18T08:16:21;102998.69;;;-5.13;100.00
3122;BME280;1571;52.524;14.104;2022-12-18T08:18:51;103002.44;;;-5.05;100.00
3122;BME280;1571;52.524;14.104;2022-12-18T08:21:22;103002.78;;;-5.40;100.00
3122;BME280;1571;52.524;14.104;2022-12-18T08:23:51;103012.94;;;-5.24;100.00
3122;BME280;1571;52.524;14.104;2022-12-18T08:26:22;103007.78;;;-5.23;100.00
3122;BME280;1571;52.524;14.104;2022-12-18T08:28:53;102996.84;;;-5.38;100.00
3122;BME280;1571;52.524;14.104;2022-12-18T08:31:22;103004.13;;;-5.50;100.00
3122;BME280;1571;52.524;14.104;2022-12-18T08:33:52;103000.69;;;-5.28;100.00
3122;BME280;1571;52.524;14.104;2022-12-18T08:36:21;103000.34;;;-5.15;100.00
3122;BME280;1571;52.524;14.104;2022-12-18T08:38:51;102987.66;;;-5.07;100.00
3122;BME280;1571;52.524;14.104;2022-12-18T08:41:19;102991.19;;;-5.05;100.00
3122;BME280;1571;52.524;14.104;2022-12-18T08:43:49;102992.25;;;-5.23;100.00
3122;BME280;1571;52.524;14.104;2022-12-18T08:46:37;102999.47;;;-4.91;100.00
3122;BME280;1571;52.524;14.104;2022-12-18T08:49:06;103002.47;;;-4.81;100.00
3122;BME280;1571;52.524;14.104;2022-12-18T08:51:35;103006.00;;;-4.78;100.00
3122;BME280;1571;52.524;14.104;2022-12-18T08:54:04;103012.59;;;-4.87;100.00
3122;BME280;1571;52.524;14.104;2022-12-18T08:56:33;103023.16;;;-5.05;100.00
3122;BME280;1571;52.524;14.104;2022-12-18T08:59:02;103027.22;;;-5.11;100.00
3122;BME280;1571;52.524;14.104;2022-12-18T09:01:31;103013.28;;;-4.92;100.00
3122;BME280;1571;52.524;14.104;2022-12-18T09:04:00;103013.28;;;-4.92;100.00
3122;BME280;1571;52.524;14.104;2022-12-18T09:06:28;103018.00;;;-4.58;100.00
3122;BME280;1571;52.524;14.104;2022-12-18T09:08:57;103035.13;;;-4.62;100.00
3122;BME280;1571;52.524;14.104;2022-12-18T09:11:27;103031.09;;;-4.77;100.00
3122;BME280;1571;52.524;14.104;2022-12-18T09:13:57;103037.78;;;-4.60;100.00
3122;BME280;1571;52.524;14.104;2022-12-18T09:16:28;103030.53;;;-4.70;100.00
3122;BME280;1571;52.524;14.104;2022-12-18T09:18:59;103033.56;;;-4.81;100.00
3122;BME280;1571;52.524;14.104;2022-12-18T09:21:29;103041.59;;;-4.74;100.00
3122;BME280;1571;52.524;14.104;2022-12-18T09:23:59;103046.28;;;-4.64;100.00
3122;BME280;1571;52.524;14.104;2022-12-18T09:26:28;103045.19;;;-4.47;100.00
3122;BME280;1571;52.524;14.104;2022-12-18T09:28:56;103047.06;;;-4.67;100.00
3122;BME280;1571;52.524;14.104;2022-12-18T09:31:25;103038.28;;;-4.70;100.00
3122;BME280;1571;52.524;14.104;2022-12-18T09:33:55;103044.53;;;-4.65;100.00
3122;BME280;1571;52.524;14.104;2022-12-18T09:36:24;103055.63;;;-4.45;100.00
3122;BME280;1571;52.524;14.104;2022-12-18T09:38:52;103051.75;;;-4.56;100.00
3122;BME280;1571;52.524;14.104;2022-12-18T09:41:34;103050.28;;;-4.50;100.00
3122;BME280;1571;52.524;14.104;2022-12-18T09:44:13;103048.81;;;-4.42;100.00
3122;BME280;1571;52.524;14.104;2022-12-18T09:46:45;103053.81;;;-4.48;100.00
3122;BME280;1571;52.524;14.104;2022-12-18T09:49:19;103055.47;;;-4.50;100.00
3122;BME280;1571;52.524;14.104;2022-12-18T09:51:53;103050.72;;;-4.37;100.00
3122;BME280;1571;52.524;14.104;2022-12-18T09:54:25;103053.34;;;-4.60;100.00
3122;BME280;1571;52.524;14.104;2022-12-18T09:56:54;103051.25;;;-4.22;100.00
3122;BME280;1571;52.524;14.104;2022-12-18T09:59:24;103064.63;;;-4.35;100.00
3122;BME280;1571;52.524;14.104;2022-12-18T10:01:54;103063.19;;;-4.27;100.00
3122;BME280;1571;52.524;14.104;2022-12-18T10:04:28;103047.44;;;-4.08;100.00
3122;BME280;1571;52.524;14.104;2022-12-18T10:07:04;103041.56;;;-4.28;100.00
3122;BME280;1571;52.524;14.104;2022-12-18T10:09:39;103033.81;;;-4.50;100.00
3122;BME280;1571;52.524;14.104;2022-12-18T10:12:19;103031.44;;;-4.44;100.00
3122;BME280;1571;52.524;14.104;2022-12-18T10:14:54;103043.44;;;-4.48;100.00
3122;BME280;1571;52.524;14.104;2022-12-18T10:17:29;103030.84;;;-4.37;100.00
3122;BME280;1571;52.524;14.104;2022-12-18T10:20:05;103028.75;;;-4.47;100.00
3122;BME280;1571;52.524;14.104;2022-12-18T10:22:46;103034.81;;;-4.47;100.00
3122;BME280;1571;52.524;14.104;2022-12-18T10:25:21;103031.81;;;-4.59;100.00
3122;BME280;1571;52.524;14.104;2022-12-18T10:27:52;103025.31;;;-4.46;100.00
3122;BME280;1571;52.524;14.104;2022-12-18T10:30:23;103004.31;;;-4.54;100.00
3122;BME280;1571;52.524;14.104;2022-12-18T10:32:52;103003.06;;;-4.41;100.00
3122;BME280;1571;52.524;14.104;2022-12-18T10:35:24;103011.16;;;-4.56;100.00
3122;BME280;1571;52.524;14.104;2022-12-18T10:38:00;103011.28;;;-4.77;100.00
3122;BME280;1571;52.524;14.104;2022-12-18T10:40:29;103017.50;;;-4.48;100.00
3122;BME280;1571;52.524;14.104;2022-12-18T10:43:04;103019.78;;;-4.57;100.00
3122;BME280;1571;52.524;14.104;2022-12-18T10:45:32;103011.81;;;-4.62;100.00
3122;BME280;1571;52.524;14.104;2022-12-18T10:48:00;103015.84;;;-4.70;100.00
3122;BME280;1571;52.524;14.104;2022-12-18T10:50:32;103002.16;;;-4.42;100.00
3122;BME280;1571;52.524;14.104;2022-12-18T10:53:23;103001.41;;;-4.63;100.00
3122;BME280;1571;52.524;14.104;2022-12-18T10:55:53;102995.09;;;-4.70;100.00
3122;BME280;1571;52.524;14.104;2022-12-18T10:58:25;102991.94;;;-4.37;100.00
3122;BME280;1571;52.524;14.104;2022-12-18T11:01:07;102986.72;;;-4.63;100.00
3122;BME280;1571;52.524;14.104;2022-12-18T11:03:38;102978.00;;;-4.65;100.00
3122;BME280;1571;52.524;14.104;2022-12-18T11:06:10;102971.84;;;-4.68;100.00
3122;BME280;1571;52.524;14.104;2022-12-18T11:08:40;102971.16;;;-4.38;100.00
3122;BME280;1571;52.524;14.104;2022-12-18T11:11:19;102962.84;;;-4.28;100.00
3122;BME280;1571;52.524;14.104;2022-12-18T11:13:58;102956.09;;;-4.49;100.00
3122;BME280;1571;52.524;14.104;2022-12-18T11:16:30;102959.44;;;-4.27;100.00
3122;BME280;1571;52.524;14.104;2022-12-18T11:19:19;102959.53;;;-4.24;100.00
3122;BME280;1571;52.524;14.104;2022-12-18T11:21:50;102951.06;;;-4.44;100.00
3122;BME280;1571;52.524;14.104;2022-12-18T11:24:26;102954.25;;;-4.27;100.00
3122;BME280;1571;52.524;14.104;2022-12-18T11:26:55;102948.06;;;-4.56;100.00
3122;BME280;1571;52.524;14.104;2022-12-18T11:29:32;102961.72;;;-4.36;100.00
3122;BME280;1571;52.524;14.104;2022-12-18T11:32:22;102955.66;;;-4.11;100.00
3122;BME280;1571;52.524;14.104;2022-12-18T11:34:58;102961.13;;;-4.53;100.00
3122;BME280;1571;52.524;14.104;2022-12-18T11:37:29;102958.38;;;-4.32;100.00
3122;BME280;1571;52.524;14.104;2022-12-18T11:40:02;102960.88;;;-4.35;100.00
3122;BME280;1571;52.524;14.104;2022-12-18T11:42:35;102949.78;;;-4.06;100.00
3122;BME280;1571;52.524;14.104;2022-12-18T11:45:25;102941.22;;;-4.29;100.00
3122;BME280;1571;52.524;14.104;2022-12-18T11:47:58;102945.09;;;-4.42;100.00
3122;BME280;1571;52.524;14.104;2022-12-18T11:50:33;102949.41;;;-4.42;100.00
3122;BME280;1571;52.524;14.104;2022-12-18T11:53:03;102959.09;;;-4.62;100.00
3122;BME280;1571;52.524;14.104;2022-12-18T11:55:39;102962.56;;;-4.86;100.00
3122;BME280;1571;52.524;14.104;2022-12-18T11:58:15;102965.19;;;-4.84;100.00
3122;BME280;1571;52.524;14.104;2022-12-18T12:00:57;102960.47;;;-4.48;100.00
3122;BME280;1571;52.524;14.104;2022-12-18T12:03:47;102961.19;;;-4.52;100.00
3122;BME280;1571;52.524;14.104;2022-12-18T12:06:24;102972.50;;;-4.50;100.00
3122;BME280;1571;52.524;14.104;2022-12-18T12:09:08;102967.31;;;-4.50;100.00
3122;BME280;1571;52.524;14.104;2022-12-18T12:11:45;102966.41;;;-4.50;100.00
3122;BME280;1571;52.524;14.104;2022-12-18T12:14:28;102964.88;;;-4.69;100.00
3122;BME280;1571;52.524;14.104;2022-12-18T12:17:04;102970.78;;;-4.49;100.00
3122;BME280;1571;52.524;14.104;2022-12-18T12:19:44;102959.69;;;-4.69;100.00
3122;BME280;1571;52.524;14.104;2022-12-18T12:22:23;102959.22;;;-4.33;100.00
3122;BME280;1571;52.524;14.104;2022-12-18T12:25:10;102963.84;;;-4.25;100.00
3122;BME280;1571;52.524;14.104;2022-12-18T12:27:51;102970.31;;;-4.37;100.00
3122;BME280;1571;52.524;14.104;2022-12-18T12:30:31;102958.47;;;-4.55;100.00
3122;BME280;1571;52.524;14.104;2022-12-18T12:33:17;102974.63;;;-4.62;100.00
3122;BME280;1571;52.524;14.104;2022-12-18T12:35:54;102983.34;;;-4.60;100.00
3122;BME280;1571;52.524;14.104;2022-12-18T12:38:28;102981.28;;;-4.70;100.00
3122;BME280;1571;52.524;14.104;2022-12-18T12:41:02;102994.00;;;-4.52;100.00
3122;BME280;1571;52.524;14.104;2022-12-18T12:43:35;102998.81;;;-4.63;100.00
3122;BME280;1571;52.524;14.104;2022-12-18T12:46:13;102997.63;;;-4.71;100.00
3122;BME280;1571;52.524;14.104;2022-12-18T12:48:46;103002.94;;;-4.68;100.00
3122;BME280;1571;52.524;14.104;2022-12-18T12:51:19;103014.69;;;-4.54;100.00
3122;BME280;1571;52.524;14.104;2022-12-18T12:53:50;103012.34;;;-4.46;100.00
3122;BME280;1571;52.524;14.104;2022-12-18T12:56:21;103012.75;;;-4.35;100.00
3122;BME280;1571;52.524;14.104;2022-12-18T12:58:57;103013.19;;;-4.23;100.00
3122;BME280;1571;52.524;14.104;2022-12-18T13:01:35;103001.13;;;-4.47;100.00
3122;BME280;1571;52.524;14.104;2022-12-18T13:04:14;103010.44;;;-4.52;100.00
3122;BME280;1571;52.524;14.104;2022-12-18T13:06:50;102999.63;;;-4.64;100.00
3122;BME280;1571;52.524;14.104;2022-12-18T13:09:22;102996.16;;;-4.15;100.00
3122;BME280;1571;52.524;14.104;2022-12-18T13:11:51;102982.78;;;-4.27;100.00
3122;BME280;1571;52.524;14.104;2022-12-18T13:14:39;102991.59;;;-4.22;100.00
3122;BME280;1571;52.524;14.104;2022-12-18T13:17:29;102980.75;;;-4.10;100.00